Kynouria — V7VY6 — position and weather

sailwx.info

Track history (hours):
 
Tides and Currents Weather Stations Pressure Air Temp Water Temp Dewpoint Dewpoint Depression Visibility Wind Speed Wind Dir Waves Ship Positions

Kynouria

Last reported at 2015-May-01 02:32 UTC. Time now 2015-May-24 05:13 UTC.
Position N 22°08' E 114°36'.
Warning: this ship's position is 23 days out of date.

Length 229 m; draft 7.6 m.

Type: Cargo ship. MMSI: 538004243.

Date/timePositionNaut miles runAvg speedWind from/ knotsBaromVisibWave heightAir tempDewpointWater temp
2015-May-01 02:32N 22°08' E 114°36'1212.3
2015-May-01 01:33N 22°07' E 114°23'1210.9
2015-May-01 00:30N 22°09' E 114°10'1 0.6
2015-Apr-30 23:23N 22°10' E 114°10'0 0.0
2015-Apr-30 22:32N 22°10' E 114°10'0 0.0
2015-Apr-30 21:29N 22°10' E 114°10'0 0.0
2015-Apr-30 20:32N 22°10' E 114°10'0 0.1
2015-Apr-30 19:29N 22°10' E 114°10'8 1.5
2015-Apr-30 14:25N 22°08' E 114°18'1113.2
2015-Apr-30 13:33N 22°09' E 114°31'12713.6
2015-Apr-30 04:11N 22°52' E 116°40'1014.5
2015-Apr-30 03:31N 22°57' E 116°49'8513.5
2015-Apr-29 21:13N 23°42' E 118°07'1213.6
2015-Apr-29 20:20N 23°49' E 118°18'1013.0
2015-Apr-29 19:33N 23°56' E 118°26'1313.1
2015-Apr-29 18:33N 24°07' E 118°34'1613.5
2015-Apr-29 17:21N 24°17' E 118°48'1113.8
2015-Apr-29 16:33N 24°25' E 118°56'1413.6
2015-Apr-29 15:29N 24°35' E 119°08'1313.5
2015-Apr-29 14:32N 24°44' E 119°18'1413.5
2015-Apr-29 13:31N 24°53' E 119°30'1313.3
2015-Apr-29 12:33N 25°01' E 119°40'1713.3
2015-Apr-29 11:17N 25°13' E 119°54'912.8
2015-Apr-29 10:33N 25°20' E 120°01'1313.0
2015-Apr-29 09:33N 25°28' E 120°11'2813.1
2015-Apr-29 07:26N 25°50' E 120°30'21812.9
2015-Apr-28 14:33N 28°57' E 122°37'1713.1
2015-Apr-28 13:16N 29°13' E 122°46'1012.5
2015-Apr-28 12:28N 29°21' E 122°52'2611.9
2015-Apr-28 10:16N 29°43' E 123°08'810.8
2015-Apr-28 09:30N 29°51' E 123°11'1110.9
2015-Apr-28 08:33N 30°00' E 123°17'78 9.7
2015-Apr-28 00:33N 31°06' E 122°29'1 1.2
2015-Apr-27 23:20N 31°06' E 122°27'0 0.1
2015-Apr-27 22:32N 31°06' E 122°27'0 0.1
2015-Apr-27 21:29N 31°06' E 122°27'0 0.0
2015-Apr-27 19:32N 31°06' E 122°27'4 4.4
2015-Apr-27 18:33N 31°06' E 122°22'1313.0
2015-Apr-27 17:33N 31°12' E 122°09'1514.5
2015-Apr-27 16:33N 31°16' E 121°52'1313.2
2015-Apr-27 15:33N 31°21' E 121°38'7 7.0
2015-Apr-27 14:33N 31°21' E 121°30'1 0.6
2015-Apr-27 13:33N 31°22' E 121°30'0 0.0
2015-Apr-27 12:32N 31°22' E 121°30'0 0.0
2015-Apr-27 11:29N 31°22' E 121°30'0 0.0
2015-Apr-27 10:32N 31°22' E 121°30'0 0.0
2015-Apr-27 09:29N 31°22' E 121°30'0 0.0
2015-Apr-27 08:32N 31°22' E 121°30'0 0.0
2015-Apr-27 07:26N 31°22' E 121°30'0 0.0
2015-Apr-27 06:32N 31°22' E 121°30'0 0.0
2015-Apr-27 05:32N 31°22' E 121°30'0 0.0
2015-Apr-27 04:32N 31°22' E 121°30'0 0.0
2015-Apr-27 03:32N 31°22' E 121°30'0 0.0
2015-Apr-27 02:29N 31°22' E 121°30'0 0.0
2015-Apr-27 01:29N 31°22' E 121°30'0 0.0
2015-Apr-27 00:08N 31°22' E 121°30'0 0.0
2015-Apr-26 23:26N 31°22' E 121°30'0 0.0
2015-Apr-26 22:32N 31°22' E 121°30'0 0.0
2015-Apr-26 21:32N 31°22' E 121°30'0 0.0
2015-Apr-26 20:32N 31°22' E 121°30'0 0.0
2015-Apr-26 19:26N 31°22' E 121°30'0 0.0
2015-Apr-26 18:32N 31°22' E 121°30'0 0.0
2015-Apr-26 17:20N 31°22' E 121°30'0 0.0
2015-Apr-26 16:26N 31°22' E 121°30'0 0.0
2015-Apr-26 15:32N 31°22' E 121°30'0 0.0
2015-Apr-26 14:20N 31°22' E 121°30'0 0.0
2015-Apr-26 13:08N 31°22' E 121°30'0 0.0
2015-Apr-26 12:26N 31°22' E 121°30'0 0.0
2015-Apr-26 11:32N 31°22' E 121°30'0 0.0
2015-Apr-26 10:32N 31°22' E 121°30'0 0.0
2015-Apr-26 09:32N 31°22' E 121°30'0 0.0
2015-Apr-26 08:26N 31°22' E 121°30'0 0.0
2015-Apr-26 07:14N 31°22' E 121°30'0 0.0
2015-Apr-26 06:26N 31°22' E 121°30'0 0.0
2015-Apr-26 05:20N 31°22' E 121°30'0 0.0
2015-Apr-26 04:26N 31°22' E 121°30'0 0.0
2015-Apr-26 03:32N 31°22' E 121°30'0 0.0
2015-Apr-26 02:14N 31°22' E 121°30'0 0.0
2015-Apr-26 01:32N 31°22' E 121°30'0 0.0
2015-Apr-26 00:26N 31°22' E 121°30'0 0.0
2015-Apr-25 19:22N 31°22' E 121°30'0 0.0
2015-Apr-25 18:10N 31°22' E 121°30'0 0.0
2015-Apr-25 16:22N 31°22' E 121°30'0 0.0
2015-Apr-25 14:28N 31°22' E 121°30'0 0.0
2015-Apr-25 12:22N 31°22' E 121°30'0 0.0
2015-Apr-25 11:28N 31°22' E 121°30'0 0.3
2015-Apr-25 10:33N 31°22' E 121°30'6 5.7
2015-Apr-25 09:33N 31°23' E 121°36'8 8.4
2015-Apr-25 08:33N 31°19' E 121°45'1110.8
2015-Apr-25 07:33N 31°15' E 121°57'1111.2
2015-Apr-25 06:33N 31°11' E 122°10'1010.4
2015-Apr-25 05:33N 31°06' E 122°20'10 9.7
2015-Apr-25 04:33N 31°07' E 122°31'6 5.6
2015-Apr-25 03:33N 31°11' E 122°36'0 0.2
2015-Apr-25 02:33N 31°11' E 122°36'0 0.1
2015-Apr-25 01:18N 31°11' E 122°36'0 0.1
2015-Apr-25 00:30N 31°11' E 122°36'0 0.1
2015-Apr-24 23:30N 31°11' E 122°36'0 0.0
2015-Apr-24 22:24N 31°11' E 122°36'0 0.0
2015-Apr-24 21:30N 31°11' E 122°36'0 0.1
2015-Apr-24 20:33N 31°11' E 122°36'0 0.0
2015-Apr-24 19:27N 31°11' E 122°36'0 0.1
2015-Apr-24 18:33N 31°11' E 122°36'0 0.1
2015-Apr-24 17:30N 31°11' E 122°36'0 0.1
2015-Apr-24 16:33N 31°11' E 122°36'0 0.1
2015-Apr-24 15:27N 31°11' E 122°36'0 0.1
2015-Apr-24 14:33N 31°11' E 122°36'0 0.1
2015-Apr-24 13:33N 31°11' E 122°36'0 0.1
2015-Apr-24 12:33N 31°11' E 122°36'0 0.1
2015-Apr-24 11:33N 31°11' E 122°36'0 0.0
2015-Apr-24 10:33N 31°11' E 122°36'0 0.1
2015-Apr-24 09:31N 31°11' E 122°36'0 0.1
2015-Apr-24 08:31N 31°11' E 122°36'0 0.1
2015-Apr-24 07:28N 31°11' E 122°36'0 0.1
2015-Apr-24 06:31N 31°11' E 122°36'0 0.1
2015-Apr-24 05:28N 31°11' E 122°36'0 0.0
2015-Apr-24 04:31N 31°11' E 122°36'0 0.1
2015-Apr-24 03:31N 31°11' E 122°36'0 0.2
2015-Apr-24 02:25N 31°11' E 122°36'0 0.1
2015-Apr-24 01:31N 31°11' E 122°36'0 0.1
2015-Apr-24 00:31N 31°11' E 122°36'0 0.3
2015-Apr-23 23:33N 31°11' E 122°36'3 2.6
2015-Apr-23 22:33N 31°14' E 122°36'7 7.1
2015-Apr-23 21:33N 31°21' E 122°38'10 9.9
2015-Apr-23 20:33N 31°29' E 122°43'10 9.9
2015-Apr-23 19:33N 31°38' E 122°49'1010.0
2015-Apr-23 18:33N 31°45' E 122°56'1010.0
2015-Apr-23 17:33N 31°54' E 123°03'1111.0
2015-Apr-23 16:33N 32°02' E 123°11'1211.5
2015-Apr-23 15:32N 32°13' E 123°17'1111.6
2015-Apr-23 14:33N 32°24' E 123°20'1312.7
2015-Apr-23 13:33N 32°37' E 123°18'1312.7
2015-Apr-23 12:33N 32°49' E 123°14'1212.3
2015-Apr-23 11:33N 33°01' E 123°16'183 9.6
2015-Apr-22 16:33N 34°58' E 120°26'1313.0
2015-Apr-22 15:33N 34°56' E 120°10'1312.5
2015-Apr-22 14:33N 34°55' E 119°55'1212.5
2015-Apr-22 13:33N 34°49' E 119°41'1110.5
2015-Apr-22 12:33N 34°44' E 119°30'17 0.7
2015-Apr-21 12:05N 34°52' E 119°48'3 6.2
2015-Apr-21 11:31N 34°54' E 119°51'0 0.1
2015-Apr-21 10:33N 34°54' E 119°51'0 0.1
2015-Apr-21 09:33N 34°54' E 119°50'0 0.1
2015-Apr-21 08:33N 34°54' E 119°50'0 0.1
2015-Apr-21 07:32N 34°55' E 119°50'  
Track history (hours):
 
Tides and Currents Weather Stations Pressure Air Temp Water Temp Dewpoint Dewpoint Depression Visibility Wind Speed Wind Dir Waves Ship Positions

Kynouria

Last reported at 2015-May-01 02:32 UTC. Time now 2015-May-24 05:13 UTC.
Position N 22°08' E 114°36'.
Warning: this ship's position is 23 days out of date.

Length 229 m; draft 7.6 m.

Type: Cargo ship. MMSI: 538004243.

Date/timePositionNaut miles runAvg speedWind from/ knotsBaromVisibWave heightAir tempDewpointWater temp
2015-May-01 02:32N 22°08' E 114°36'1212.3
2015-May-01 01:33N 22°07' E 114°23'1210.9
2015-May-01 00:30N 22°09' E 114°10'1 0.6
2015-Apr-30 23:23N 22°10' E 114°10'0 0.0
2015-Apr-30 22:32N 22°10' E 114°10'0 0.0
2015-Apr-30 21:29N 22°10' E 114°10'0 0.0
2015-Apr-30 20:32N 22°10' E 114°10'0 0.1
2015-Apr-30 19:29N 22°10' E 114°10'8 1.5
2015-Apr-30 14:25N 22°08' E 114°18'1113.2
2015-Apr-30 13:33N 22°09' E 114°31'12713.6
2015-Apr-30 04:11N 22°52' E 116°40'1014.5
2015-Apr-30 03:31N 22°57' E 116°49'8513.5
2015-Apr-29 21:13N 23°42' E 118°07'1213.6
2015-Apr-29 20:20N 23°49' E 118°18'1013.0
2015-Apr-29 19:33N 23°56' E 118°26'1313.1
2015-Apr-29 18:33N 24°07' E 118°34'1613.5
2015-Apr-29 17:21N 24°17' E 118°48'1113.8
2015-Apr-29 16:33N 24°25' E 118°56'1413.6
2015-Apr-29 15:29N 24°35' E 119°08'1313.5
2015-Apr-29 14:32N 24°44' E 119°18'1413.5
2015-Apr-29 13:31N 24°53' E 119°30'1313.3
2015-Apr-29 12:33N 25°01' E 119°40'1713.3
2015-Apr-29 11:17N 25°13' E 119°54'912.8
2015-Apr-29 10:33N 25°20' E 120°01'1313.0
2015-Apr-29 09:33N 25°28' E 120°11'2813.1
2015-Apr-29 07:26N 25°50' E 120°30'21812.9
2015-Apr-28 14:33N 28°57' E 122°37'1713.1
2015-Apr-28 13:16N 29°13' E 122°46'1012.5
2015-Apr-28 12:28N 29°21' E 122°52'2611.9
2015-Apr-28 10:16N 29°43' E 123°08'810.8
2015-Apr-28 09:30N 29°51' E 123°11'1110.9
2015-Apr-28 08:33N 30°00' E 123°17'78 9.7
2015-Apr-28 00:33N 31°06' E 122°29'1 1.2
2015-Apr-27 23:20N 31°06' E 122°27'0 0.1
2015-Apr-27 22:32N 31°06' E 122°27'0 0.1
2015-Apr-27 21:29N 31°06' E 122°27'0 0.0
2015-Apr-27 19:32N 31°06' E 122°27'4 4.4
2015-Apr-27 18:33N 31°06' E 122°22'1313.0
2015-Apr-27 17:33N 31°12' E 122°09'1514.5
2015-Apr-27 16:33N 31°16' E 121°52'1313.2
2015-Apr-27 15:33N 31°21' E 121°38'7 7.0
2015-Apr-27 14:33N 31°21' E 121°30'1 0.6
2015-Apr-27 13:33N 31°22' E 121°30'0 0.0
2015-Apr-27 12:32N 31°22' E 121°30'0 0.0
2015-Apr-27 11:29N 31°22' E 121°30'0 0.0
2015-Apr-27 10:32N 31°22' E 121°30'0 0.0
2015-Apr-27 09:29N 31°22' E 121°30'0 0.0
2015-Apr-27 08:32N 31°22' E 121°30'0 0.0
2015-Apr-27 07:26N 31°22' E 121°30'0 0.0
2015-Apr-27 06:32N 31°22' E 121°30'0 0.0
2015-Apr-27 05:32N 31°22' E 121°30'0 0.0
2015-Apr-27 04:32N 31°22' E 121°30'0 0.0
2015-Apr-27 03:32N 31°22' E 121°30'0 0.0
2015-Apr-27 02:29N 31°22' E 121°30'0 0.0
2015-Apr-27 01:29N 31°22' E 121°30'0 0.0
2015-Apr-27 00:08N 31°22' E 121°30'0 0.0
2015-Apr-26 23:26N 31°22' E 121°30'0 0.0
2015-Apr-26 22:32N 31°22' E 121°30'0 0.0
2015-Apr-26 21:32N 31°22' E 121°30'0 0.0
2015-Apr-26 20:32N 31°22' E 121°30'0 0.0
2015-Apr-26 19:26N 31°22' E 121°30'0 0.0
2015-Apr-26 18:32N 31°22' E 121°30'0 0.0
2015-Apr-26 17:20N 31°22' E 121°30'0 0.0
2015-Apr-26 16:26N 31°22' E 121°30'0 0.0
2015-Apr-26 15:32N 31°22' E 121°30'0 0.0
2015-Apr-26 14:20N 31°22' E 121°30'0 0.0
2015-Apr-26 13:08N 31°22' E 121°30'0 0.0
2015-Apr-26 12:26N 31°22' E 121°30'0 0.0
2015-Apr-26 11:32N 31°22' E 121°30'0 0.0
2015-Apr-26 10:32N 31°22' E 121°30'0 0.0
2015-Apr-26 09:32N 31°22' E 121°30'0 0.0
2015-Apr-26 08:26N 31°22' E 121°30'0 0.0
2015-Apr-26 07:14N 31°22' E 121°30'0 0.0
2015-Apr-26 06:26N 31°22' E 121°30'0 0.0
2015-Apr-26 05:20N 31°22' E 121°30'0 0.0
2015-Apr-26 04:26N 31°22' E 121°30'0 0.0
2015-Apr-26 03:32N 31°22' E 121°30'0 0.0
2015-Apr-26 02:14N 31°22' E 121°30'0 0.0
2015-Apr-26 01:32N 31°22' E 121°30'0 0.0
2015-Apr-26 00:26N 31°22' E 121°30'0 0.0
2015-Apr-25 19:22N 31°22' E 121°30'0 0.0
2015-Apr-25 18:10N 31°22' E 121°30'0 0.0
2015-Apr-25 16:22N 31°22' E 121°30'0 0.0
2015-Apr-25 14:28N 31°22' E 121°30'0 0.0
2015-Apr-25 12:22N 31°22' E 121°30'0 0.0
2015-Apr-25 11:28N 31°22' E 121°30'0 0.3
2015-Apr-25 10:33N 31°22' E 121°30'6 5.7
2015-Apr-25 09:33N 31°23' E 121°36'8 8.4
2015-Apr-25 08:33N 31°19' E 121°45'1110.8
2015-Apr-25 07:33N 31°15' E 121°57'1111.2
2015-Apr-25 06:33N 31°11' E 122°10'1010.4
2015-Apr-25 05:33N 31°06' E 122°20'10 9.7
2015-Apr-25 04:33N 31°07' E 122°31'6 5.6
2015-Apr-25 03:33N 31°11' E 122°36'0 0.2
2015-Apr-25 02:33N 31°11' E 122°36'0 0.1
2015-Apr-25 01:18N 31°11' E 122°36'0 0.1
2015-Apr-25 00:30N 31°11' E 122°36'0 0.1
2015-Apr-24 23:30N 31°11' E 122°36'0 0.0
2015-Apr-24 22:24N 31°11' E 122°36'0 0.0
2015-Apr-24 21:30N 31°11' E 122°36'0 0.1
2015-Apr-24 20:33N 31°11' E 122°36'0 0.0
2015-Apr-24 19:27N 31°11' E 122°36'0 0.1
2015-Apr-24 18:33N 31°11' E 122°36'0 0.1
2015-Apr-24 17:30N 31°11' E 122°36'0 0.1
2015-Apr-24 16:33N 31°11' E 122°36'0 0.1
2015-Apr-24 15:27N 31°11' E 122°36'0 0.1
2015-Apr-24 14:33N 31°11' E 122°36'0 0.1
2015-Apr-24 13:33N 31°11' E 122°36'0 0.1
2015-Apr-24 12:33N 31°11' E 122°36'0 0.1
2015-Apr-24 11:33N 31°11' E 122°36'0 0.0
2015-Apr-24 10:33N 31°11' E 122°36'0 0.1
2015-Apr-24 09:31N 31°11' E 122°36'0 0.1
2015-Apr-24 08:31N 31°11' E 122°36'0 0.1
2015-Apr-24 07:28N 31°11' E 122°36'0 0.1
2015-Apr-24 06:31N 31°11' E 122°36'0 0.1
2015-Apr-24 05:28N 31°11' E 122°36'0 0.0
2015-Apr-24 04:31N 31°11' E 122°36'0 0.1
2015-Apr-24 03:31N 31°11' E 122°36'0 0.2
2015-Apr-24 02:25N 31°11' E 122°36'0 0.1
2015-Apr-24 01:31N 31°11' E 122°36'0 0.1
2015-Apr-24 00:31N 31°11' E 122°36'0 0.3
2015-Apr-23 23:33N 31°11' E 122°36'3 2.6
2015-Apr-23 22:33N 31°14' E 122°36'7 7.1
2015-Apr-23 21:33N 31°21' E 122°38'10 9.9
2015-Apr-23 20:33N 31°29' E 122°43'10 9.9
2015-Apr-23 19:33N 31°38' E 122°49'1010.0
2015-Apr-23 18:33N 31°45' E 122°56'1010.0
2015-Apr-23 17:33N 31°54' E 123°03'1111.0
2015-Apr-23 16:33N 32°02' E 123°11'1211.5
2015-Apr-23 15:32N 32°13' E 123°17'1111.6
2015-Apr-23 14:33N 32°24' E 123°20'1312.7
2015-Apr-23 13:33N 32°37' E 123°18'1312.7
2015-Apr-23 12:33N 32°49' E 123°14'1212.3
2015-Apr-23 11:33N 33°01' E 123°16'183 9.6
2015-Apr-22 16:33N 34°58' E 120°26'1313.0
2015-Apr-22 15:33N 34°56' E 120°10'1312.5
2015-Apr-22 14:33N 34°55' E 119°55'1212.5
2015-Apr-22 13:33N 34°49' E 119°41'1110.5
2015-Apr-22 12:33N 34°44' E 119°30'17 0.7
2015-Apr-21 12:05N 34°52' E 119°48'3 6.2
2015-Apr-21 11:31N 34°54' E 119°51'0 0.1
2015-Apr-21 10:33N 34°54' E 119°51'0 0.1
2015-Apr-21 09:33N 34°54' E 119°50'0 0.1
2015-Apr-21 08:33N 34°54' E 119°50'0 0.1
2015-Apr-21 07:32N 34°55' E 119°50'  

Dump ship's entire track history